sensor_id;sensor_type;location;lat;lon;timestamp;pressure;altitude;pressure_sealevel;temperature;humidity
76378;BME280;65200;49.500;8.654;2023-07-29T00:01:05;99935.13;;;18.63;100.00
76378;BME280;65200;49.500;8.654;2023-07-29T00:03:32;99928.22;;;18.56;100.00
76378;BME280;65200;49.500;8.654;2023-07-29T00:05:58;99927.72;;;18.59;100.00
76378;BME280;65200;49.500;8.654;2023-07-29T00:08:25;99927.28;;;18.45;100.00
76378;BME280;65200;49.500;8.654;2023-07-29T00:10:51;99924.13;;;18.53;100.00
76378;BME280;65200;49.500;8.654;2023-07-29T00:13:19;99917.28;;;18.51;100.00
76378;BME280;65200;49.500;8.654;2023-07-29T00:15:45;99921.47;;;18.58;100.00
76378;BME280;65200;49.500;8.654;2023-07-29T00:18:12;99919.69;;;18.69;100.00
76378;BME280;65200;49.500;8.654;2023-07-29T00:20:38;99916.63;;;18.60;100.00
76378;BME280;65200;49.500;8.654;2023-07-29T00:23:05;99918.56;;;18.65;100.00
76378;BME280;65200;49.500;8.654;2023-07-29T00:25:31;99911.22;;;18.65;100.00
76378;BME280;65200;49.500;8.654;2023-07-29T00:27:58;99912.81;;;18.61;100.00
76378;BME280;65200;49.500;8.654;2023-07-29T00:30:26;99909.09;;;18.67;100.00
76378;BME280;65200;49.500;8.654;2023-07-29T00:32:52;99910.25;;;18.71;100.00
76378;BME280;65200;49.500;8.654;2023-07-29T00:35:19;99907.53;;;18.71;100.00
76378;BME280;65200;49.500;8.654;2023-07-29T00:37:45;99902.03;;;18.66;100.00
76378;BME280;65200;49.500;8.654;2023-07-29T00:40:14;99892.28;;;18.70;100.00
76378;BME280;65200;49.500;8.654;2023-07-29T00:42:42;99886.84;;;18.70;100.00
76378;BME280;65200;49.500;8.654;2023-07-29T00:45:09;99886.38;;;18.73;100.00
76378;BME280;65200;49.500;8.654;2023-07-29T00:47:37;99884.72;;;18.72;100.00
76378;BME280;65200;49.500;8.654;2023-07-29T00:50:04;99878.91;;;18.64;100.00
76378;BME280;65200;49.500;8.654;2023-07-29T00:52:31;99885.09;;;18.59;100.00
76378;BME280;65200;49.500;8.654;2023-07-29T00:54:58;99877.59;;;18.66;100.00
76378;BME280;65200;49.500;8.654;2023-07-29T00:57:25;99868.00;;;18.59;100.00
76378;BME280;65200;49.500;8.654;2023-07-29T00:59:51;99864.53;;;18.63;100.00
76378;BME280;65200;49.500;8.654;2023-07-29T01:02:18;99862.88;;;18.62;100.00
76378;BME280;65200;49.500;8.654;2023-07-29T01:04:51;99863.94;;;18.83;100.00
76378;BME280;65200;49.500;8.654;2023-07-29T01:07:21;99861.63;;;18.70;100.00
76378;BME280;65200;49.500;8.654;2023-07-29T01:09:55;99866.69;;;18.61;100.00
76378;BME280;65200;49.500;8.654;2023-07-29T01:12:31;99868.69;;;18.71;100.00
76378;BME280;65200;49.500;8.654;2023-07-29T01:15:06;99876.38;;;18.79;100.00
76378;BME280;65200;49.500;8.654;2023-07-29T01:17:36;99871.50;;;18.81;100.00
76378;BME280;65200;49.500;8.654;2023-07-29T01:20:08;99869.13;;;18.84;100.00
76378;BME280;65200;49.500;8.654;2023-07-29T01:22:36;99862.03;;;18.83;100.00
76378;BME280;65200;49.500;8.654;2023-07-29T01:25:04;99861.81;;;18.90;100.00
76378;BME280;65200;49.500;8.654;2023-07-29T01:27:31;99863.31;;;19.02;100.00
76378;BME280;65200;49.500;8.654;2023-07-29T01:29:58;99866.03;;;19.02;100.00
76378;BME280;65200;49.500;8.654;2023-07-29T01:32:29;99858.03;;;18.91;100.00
76378;BME280;65200;49.500;8.654;2023-07-29T01:35:03;99853.22;;;18.71;100.00
76378;BME280;65200;49.500;8.654;2023-07-29T01:37:33;99848.97;;;18.54;100.00
76378;BME280;65200;49.500;8.654;2023-07-29T01:40:01;99853.34;;;18.38;100.00
76378;BME280;65200;49.500;8.654;2023-07-29T01:42:29;99851.66;;;18.32;100.00
76378;BME280;65200;49.500;8.654;2023-07-29T01:44:56;99857.59;;;18.29;100.00
76378;BME280;65200;49.500;8.654;2023-07-29T01:47:22;99851.00;;;18.25;100.00
76378;BME280;65200;49.500;8.654;2023-07-29T01:49:49;99855.00;;;18.18;100.00
76378;BME280;65200;49.500;8.654;2023-07-29T01:52:15;99850.75;;;18.27;100.00
76378;BME280;65200;49.500;8.654;2023-07-29T01:54:42;99846.91;;;18.23;100.00
76378;BME280;65200;49.500;8.654;2023-07-29T01:57:08;99846.28;;;18.16;100.00
76378;BME280;65200;49.500;8.654;2023-07-29T01:59:36;99849.88;;;18.00;100.00
76378;BME280;65200;49.500;8.654;2023-07-29T02:02:02;99850.03;;;17.93;100.00
76378;BME280;65200;49.500;8.654;2023-07-29T02:04:29;99846.81;;;17.96;100.00
76378;BME280;65200;49.500;8.654;2023-07-29T02:06:55;99840.56;;;17.96;100.00
76378;BME280;65200;49.500;8.654;2023-07-29T02:09:22;99840.81;;;17.94;100.00
76378;BME280;65200;49.500;8.654;2023-07-29T02:11:48;99838.69;;;17.96;100.00
76378;BME280;65200;49.500;8.654;2023-07-29T02:14:15;99842.50;;;17.95;100.00
76378;BME280;65200;49.500;8.654;2023-07-29T02:16:42;99848.03;;;18.05;100.00
76378;BME280;65200;49.500;8.654;2023-07-29T02:19:09;99844.31;;;18.11;100.00
76378;BME280;65200;49.500;8.654;2023-07-29T02:21:35;99832.59;;;18.06;100.00
76378;BME280;65200;49.500;8.654;2023-07-29T02:24:02;99827.91;;;18.01;100.00
76378;BME280;65200;49.500;8.654;2023-07-29T02:26:28;99830.06;;;17.99;100.00
76378;BME280;65200;49.500;8.654;2023-07-29T02:28:55;99833.34;;;18.01;100.00
76378;BME280;65200;49.500;8.654;2023-07-29T02:31:22;99839.41;;;18.08;100.00
76378;BME280;65200;49.500;8.654;2023-07-29T02:33:51;99837.81;;;18.12;100.00
76378;BME280;65200;49.500;8.654;2023-07-29T02:36:18;99840.88;;;18.37;100.00
76378;BME280;65200;49.500;8.654;2023-07-29T02:38:44;99848.00;;;18.43;100.00
76378;BME280;65200;49.500;8.654;2023-07-29T02:41:11;99843.22;;;18.50;100.00
76378;BME280;65200;49.500;8.654;2023-07-29T02:43:38;99846.19;;;18.49;100.00
76378;BME280;65200;49.500;8.654;2023-07-29T02:46:06;99835.00;;;18.45;100.00
76378;BME280;65200;49.500;8.654;2023-07-29T02:48:32;99841.03;;;18.47;100.00
76378;BME280;65200;49.500;8.654;2023-07-29T02:51:00;99838.38;;;18.57;100.00
76378;BME280;65200;49.500;8.654;2023-07-29T02:53:27;99833.91;;;18.68;100.00
76378;BME280;65200;49.500;8.654;2023-07-29T02:55:53;99835.22;;;18.65;100.00
76378;BME280;65200;49.500;8.654;2023-07-29T02:58:19;99841.75;;;18.64;100.00
76378;BME280;65200;49.500;8.654;2023-07-29T03:00:46;99842.25;;;18.61;100.00
76378;BME280;65200;49.500;8.654;2023-07-29T03:03:13;99837.84;;;18.55;100.00
76378;BME280;65200;49.500;8.654;2023-07-29T03:05:40;99827.72;;;18.51;100.00
76378;BME280;65200;49.500;8.654;2023-07-29T03:08:07;99825.56;;;18.31;100.00
76378;BME280;65200;49.500;8.654;2023-07-29T03:10:34;99821.81;;;18.32;100.00
76378;BME280;65200;49.500;8.654;2023-07-29T03:13:01;99821.75;;;18.27;100.00
76378;BME280;65200;49.500;8.654;2023-07-29T03:15:27;99812.72;;;18.22;100.00
76378;BME280;65200;49.500;8.654;2023-07-29T03:17:54;99816.75;;;18.19;100.00
76378;BME280;65200;49.500;8.654;2023-07-29T03:20:20;99808.63;;;18.19;100.00
76378;BME280;65200;49.500;8.654;2023-07-29T03:22:47;99809.75;;;18.23;100.00
76378;BME280;65200;49.500;8.654;2023-07-29T03:25:15;99797.78;;;18.19;100.00
76378;BME280;65200;49.500;8.654;2023-07-29T03:27:41;99800.34;;;18.31;100.00
76378;BME280;65200;49.500;8.654;2023-07-29T03:30:08;99801.16;;;18.31;100.00
76378;BME280;65200;49.500;8.654;2023-07-29T03:32:40;99795.34;;;18.39;100.00
76378;BME280;65200;49.500;8.654;2023-07-29T03:35:07;99805.69;;;18.42;100.00
76378;BME280;65200;49.500;8.654;2023-07-29T03:37:34;99795.38;;;18.44;100.00
76378;BME280;65200;49.500;8.654;2023-07-29T03:40:00;99792.72;;;18.49;100.00
76378;BME280;65200;49.500;8.654;2023-07-29T03:42:29;99786.75;;;18.47;100.00
76378;BME280;65200;49.500;8.654;2023-07-29T03:44:56;99777.72;;;18.42;100.00
76378;BME280;65200;49.500;8.654;2023-07-29T03:47:22;99777.50;;;18.48;100.00
76378;BME280;65200;49.500;8.654;2023-07-29T03:49:48;99771.47;;;18.41;100.00
76378;BME280;65200;49.500;8.654;2023-07-29T03:52:15;99765.25;;;18.41;100.00
76378;BME280;65200;49.500;8.654;2023-07-29T03:54:42;99748.13;;;18.40;100.00
76378;BME280;65200;49.500;8.654;2023-07-29T03:57:08;99757.19;;;18.51;100.00
76378;BME280;65200;49.500;8.654;2023-07-29T03:59:36;99761.91;;;18.60;100.00
76378;BME280;65200;49.500;8.654;2023-07-29T04:02:02;99772.78;;;18.65;100.00
76378;BME280;65200;49.500;8.654;2023-07-29T04:04:29;99772.78;;;18.65;100.00
76378;BME280;65200;49.500;8.654;2023-07-29T04:06:55;99775.75;;;18.64;100.00
76378;BME280;65200;49.500;8.654;2023-07-29T04:09:22;99781.56;;;18.72;100.00
76378;BME280;65200;49.500;8.654;2023-07-29T04:11:49;99773.41;;;18.72;100.00
76378;BME280;65200;49.500;8.654;2023-07-29T04:14:15;99773.41;;;18.72;100.00
76378;BME280;65200;49.500;8.654;2023-07-29T04:16:43;99785.88;;;18.68;100.00
76378;BME280;65200;49.500;8.654;2023-07-29T04:19:10;99791.84;;;18.70;100.00
76378;BME280;65200;49.500;8.654;2023-07-29T04:21:36;99781.19;;;18.64;100.00
76378;BME280;65200;49.500;8.654;2023-07-29T04:24:03;99777.47;;;18.70;100.00
76378;BME280;65200;49.500;8.654;2023-07-29T04:26:30;99789.69;;;18.72;100.00
76378;BME280;65200;49.500;8.654;2023-07-29T04:28:56;99788.16;;;18.81;100.00
76378;BME280;65200;49.500;8.654;2023-07-29T04:31:23;99783.50;;;18.77;100.00
76378;BME280;65200;49.500;8.654;2023-07-29T04:33:51;99785.94;;;18.78;100.00
76378;BME280;65200;49.500;8.654;2023-07-29T04:36:17;99794.88;;;18.74;100.00
76378;BME280;65200;49.500;8.654;2023-07-29T04:38:44;99801.13;;;18.74;100.00
76378;BME280;65200;49.500;8.654;2023-07-29T04:41:10;99802.69;;;18.70;100.00
76378;BME280;65200;49.500;8.654;2023-07-29T04:43:37;99799.97;;;18.70;100.00
76378;BME280;65200;49.500;8.654;2023-07-29T04:46:06;99788.66;;;18.78;100.00
76378;BME280;65200;49.500;8.654;2023-07-29T04:48:33;99800.56;;;18.72;100.00
76378;BME280;65200;49.500;8.654;2023-07-29T04:51:00;99809.22;;;18.69;100.00
76378;BME280;65200;49.500;8.654;2023-07-29T04:53:27;99814.19;;;18.77;100.00
76378;BME280;65200;49.500;8.654;2023-07-29T04:55:53;99814.50;;;18.81;100.00
76378;BME280;65200;49.500;8.654;2023-07-29T04:58:20;99810.94;;;18.80;100.00
76378;BME280;65200;49.500;8.654;2023-07-29T05:00:46;99820.19;;;18.79;100.00
76378;BME280;65200;49.500;8.654;2023-07-29T05:03:13;99813.88;;;18.74;100.00
76378;BME280;65200;49.500;8.654;2023-07-29T05:05:39;99810.03;;;18.70;100.00
76378;BME280;65200;49.500;8.654;2023-07-29T05:08:07;99820.78;;;18.60;100.00
76378;BME280;65200;49.500;8.654;2023-07-29T05:10:34;99833.16;;;18.51;100.00
76378;BME280;65200;49.500;8.654;2023-07-29T05:13:01;99836.06;;;18.44;100.00
76378;BME280;65200;49.500;8.654;2023-07-29T05:15:27;99811.63;;;18.39;100.00
76378;BME280;65200;49.500;8.654;2023-07-29T05:17:54;99805.53;;;18.32;100.00
76378;BME280;65200;49.500;8.654;2023-07-29T05:20:20;99807.59;;;18.25;100.00
76378;BME280;65200;49.500;8.654;2023-07-29T05:22:47;99806.16;;;18.18;100.00
76378;BME280;65200;49.500;8.654;2023-07-29T05:25:15;99801.53;;;18.18;100.00
76378;BME280;65200;49.500;8.654;2023-07-29T05:27:42;99795.00;;;18.14;100.00
76378;BME280;65200;49.500;8.654;2023-07-29T05:30:08;99815.53;;;18.10;100.00
76378;BME280;65200;49.500;8.654;2023-07-29T05:32:35;99814.75;;;18.10;100.00
76378;BME280;65200;49.500;8.654;2023-07-29T05:35:01;99830.94;;;18.05;100.00
76378;BME280;65200;49.500;8.654;2023-07-29T05:37:28;99837.69;;;18.02;100.00
76378;BME280;65200;49.500;8.654;2023-07-29T05:39:54;99849.63;;;18.01;100.00
76378;BME280;65200;49.500;8.654;2023-07-29T05:42:22;99855.03;;;18.01;100.00
76378;BME280;65200;49.500;8.654;2023-07-29T05:44:49;99819.72;;;17.96;100.00
76378;BME280;65200;49.500;8.654;2023-07-29T05:47:15;99815.25;;;18.07;100.00
76378;BME280;65200;49.500;8.654;2023-07-29T05:49:42;99819.91;;;18.11;100.00
76378;BME280;65200;49.500;8.654;2023-07-29T05:52:08;99825.66;;;18.15;100.00
76378;BME280;65200;49.500;8.654;2023-07-29T05:54:35;99837.88;;;18.17;100.00
76378;BME280;65200;49.500;8.654;2023-07-29T05:57:01;99827.53;;;18.14;100.00
76378;BME280;65200;49.500;8.654;2023-07-29T05:59:29;99835.09;;;18.12;100.00
76378;BME280;65200;49.500;8.654;2023-07-29T06:01:56;99842.41;;;18.12;100.00
76378;BME280;65200;49.500;8.654;2023-07-29T06:04:22;99834.59;;;18.15;100.00
76378;BME280;65200;49.500;8.654;2023-07-29T06:06:49;99834.41;;;18.22;100.00
76378;BME280;65200;49.500;8.654;2023-07-29T06:09:16;99836.94;;;18.28;100.00
76378;BME280;65200;49.500;8.654;2023-07-29T06:11:43;99842.00;;;18.41;100.00
76378;BME280;65200;49.500;8.654;2023-07-29T06:14:09;99828.06;;;18.54;100.00
76378;BME280;65200;49.500;8.654;2023-07-29T06:16:37;99826.22;;;18.60;100.00
76378;BME280;65200;49.500;8.654;2023-07-29T06:19:03;99813.41;;;18.82;100.00
76378;BME280;65200;49.500;8.654;2023-07-29T06:21:30;99815.50;;;19.01;100.00
76378;BME280;65200;49.500;8.654;2023-07-29T06:23:56;99819.72;;;19.19;100.00
76378;BME280;65200;49.500;8.654;2023-07-29T06:26:23;99819.44;;;19.16;100.00
76378;BME280;65200;49.500;8.654;2023-07-29T06:28:49;99820.06;;;19.28;100.00
76378;BME280;65200;49.500;8.654;2023-07-29T06:31:16;99817.31;;;19.23;100.00
76378;BME280;65200;49.500;8.654;2023-07-29T06:33:44;99808.69;;;19.31;100.00
76378;BME280;65200;49.500;8.654;2023-07-29T06:36:11;99812.59;;;19.40;100.00
76378;BME280;65200;49.500;8.654;2023-07-29T06:38:37;99821.84;;;19.44;100.00
76378;BME280;65200;49.500;8.654;2023-07-29T06:41:04;99826.22;;;19.45;100.00
76378;BME280;65200;49.500;8.654;2023-07-29T06:43:30;99833.19;;;19.36;100.00
76378;BME280;65200;49.500;8.654;2023-07-29T06:45:57;99831.00;;;19.33;100.00
76378;BME280;65200;49.500;8.654;2023-07-29T06:48:24;99837.78;;;19.30;100.00
76378;BME280;65200;49.500;8.654;2023-07-29T06:50:51;99843.06;;;19.15;100.00
76378;BME280;65200;49.500;8.654;2023-07-29T06:53:20;99833.16;;;19.31;100.00
76378;BME280;65200;49.500;8.654;2023-07-29T06:55:47;99835.41;;;19.39;100.00
76378;BME280;65200;49.500;8.654;2023-07-29T06:58:13;99827.84;;;19.46;100.00
76378;BME280;65200;49.500;8.654;2023-07-29T07:00:40;99827.41;;;19.59;100.00
76378;BME280;65200;49.500;8.654;2023-07-29T07:03:06;99837.03;;;19.76;100.00
76378;BME280;65200;49.500;8.654;2023-07-29T07:05:32;99833.00;;;19.84;100.00
76378;BME280;65200;49.500;8.654;2023-07-29T07:08:00;99828.81;;;20.13;100.00
76378;BME280;65200;49.500;8.654;2023-07-29T07:10:27;99835.94;;;20.19;100.00
76378;BME280;65200;49.500;8.654;2023-07-29T07:12:53;99848.25;;;20.36;100.00
76378;BME280;65200;49.500;8.654;2023-07-29T07:15:20;99840.97;;;20.47;100.00
76378;BME280;65200;49.500;8.654;2023-07-29T07:17:46;99849.44;;;20.71;100.00
76378;BME280;65200;49.500;8.654;2023-07-29T07:20:13;99840.28;;;21.02;100.00
76378;BME280;65200;49.500;8.654;2023-07-29T07:22:39;99856.13;;;21.35;100.00
76378;BME280;65200;49.500;8.654;2023-07-29T07:25:08;99864.00;;;21.06;100.00
76378;BME280;65200;49.500;8.654;2023-07-29T07:27:35;99856.53;;;20.62;100.00
76378;BME280;65200;49.500;8.654;2023-07-29T07:30:01;99851.50;;;21.25;100.00
76378;BME280;65200;49.500;8.654;2023-07-29T07:32:28;99854.72;;;21.93;99.38
76378;BME280;65200;49.500;8.654;2023-07-29T07:34:54;99845.31;;;22.39;93.35
76378;BME280;65200;49.500;8.654;2023-07-29T07:37:20;99842.34;;;22.25;95.43
76378;BME280;65200;49.500;8.654;2023-07-29T07:39:47;99850.13;;;21.78;96.93
76378;BME280;65200;49.500;8.654;2023-07-29T07:42:15;99852.03;;;21.47;99.76
76378;BME280;65200;49.500;8.654;2023-07-29T07:44:41;99855.28;;;21.24;100.00
76378;BME280;65200;49.500;8.654;2023-07-29T07:47:08;99846.84;;;21.26;100.00
76378;BME280;65200;49.500;8.654;2023-07-29T07:49:34;99857.75;;;21.21;100.00
76378;BME280;65200;49.500;8.654;2023-07-29T07:52:01;99863.97;;;20.96;100.00
76378;BME280;65200;49.500;8.654;2023-07-29T07:54:27;99863.69;;;20.93;100.00
76378;BME280;65200;49.500;8.654;2023-07-29T07:56:54;99856.38;;;21.08;100.00
76378;BME280;65200;49.500;8.654;2023-07-29T07:59:21;99852.84;;;21.33;100.00
76378;BME280;65200;49.500;8.654;2023-07-29T08:01:48;99852.84;;;21.83;100.00
76378;BME280;65200;49.500;8.654;2023-07-29T08:04:14;99854.94;;;22.16;98.08
76378;BME280;65200;49.500;8.654;2023-07-29T08:06:41;99852.53;;;22.73;95.01
76378;BME280;65200;49.500;8.654;2023-07-29T08:09:07;99851.88;;;22.33;95.22
76378;BME280;65200;49.500;8.654;2023-07-29T08:11:34;99866.19;;;21.95;98.73
76378;BME280;65200;49.500;8.654;2023-07-29T08:14:00;99873.56;;;21.69;100.00
76378;BME280;65200;49.500;8.654;2023-07-29T08:16:28;99865.63;;;20.97;100.00
76378;BME280;65200;49.500;8.654;2023-07-29T08:18:54;99863.31;;;20.64;100.00
76378;BME280;65200;49.500;8.654;2023-07-29T08:21:21;99856.19;;;20.48;100.00
76378;BME280;65200;49.500;8.654;2023-07-29T08:23:47;99850.16;;;20.41;100.00
76378;BME280;65200;49.500;8.654;2023-07-29T08:26:14;99848.97;;;20.17;100.00
76378;BME280;65200;49.500;8.654;2023-07-29T08:28:42;99863.28;;;20.02;100.00
76378;BME280;65200;49.500;8.654;2023-07-29T08:31:08;99848.28;;;19.90;100.00
76378;BME280;65200;49.500;8.654;2023-07-29T08:33:36;99849.00;;;19.75;100.00
76378;BME280;65200;49.500;8.654;2023-07-29T08:36:03;99856.84;;;19.72;100.00
76378;BME280;65200;49.500;8.654;2023-07-29T08:38:29;99855.03;;;19.82;100.00
76378;BME280;65200;49.500;8.654;2023-07-29T08:41:02;99857.88;;;20.07;100.00
76378;BME280;65200;49.500;8.654;2023-07-29T08:43:32;99864.81;;;20.30;100.00
76378;BME280;65200;49.500;8.654;2023-07-29T08:45:59;99869.50;;;20.44;100.00
76378;BME280;65200;49.500;8.654;2023-07-29T08:48:32;99866.53;;;20.46;100.00
76378;BME280;65200;49.500;8.654;2023-07-29T08:51:01;99868.09;;;20.32;100.00
76378;BME280;65200;49.500;8.654;2023-07-29T08:53:31;99847.97;;;20.33;100.00
76378;BME280;65200;49.500;8.654;2023-07-29T08:55:58;99856.94;;;20.28;100.00
76378;BME280;65200;49.500;8.654;2023-07-29T08:58:25;99866.25;;;20.42;100.00
76378;BME280;65200;49.500;8.654;2023-07-29T09:00:51;99874.56;;;20.88;100.00
76378;BME280;65200;49.500;8.654;2023-07-29T09:03:19;99886.88;;;21.00;100.00
76378;BME280;65200;49.500;8.654;2023-07-29T09:05:46;99898.94;;;21.44;100.00
76378;BME280;65200;49.500;8.654;2023-07-29T09:08:14;99900.00;;;21.53;100.00
76378;BME280;65200;49.500;8.654;2023-07-29T09:10:41;99891.56;;;21.65;100.00
76378;BME280;65200;49.500;8.654;2023-07-29T09:13:07;99893.16;;;22.11;100.00
76378;BME280;65200;49.500;8.654;2023-07-29T09:15:36;99896.34;;;22.43;100.00
76378;BME280;65200;49.500;8.654;2023-07-29T09:18:10;99897.06;;;22.69;100.00
76378;BME280;65200;49.500;8.654;2023-07-29T09:20:37;99893.41;;;22.25;100.00
76378;BME280;65200;49.500;8.654;2023-07-29T09:23:07;99900.97;;;22.48;100.00
76378;BME280;65200;49.500;8.654;2023-07-29T09:25:36;99889.53;;;22.46;100.00
76378;BME280;65200;49.500;8.654;2023-07-29T09:28:08;99886.66;;;22.81;100.00
76378;BME280;65200;49.500;8.654;2023-07-29T09:30:35;99874.81;;;22.95;96.85
76378;BME280;65200;49.500;8.654;2023-07-29T09:33:01;99882.84;;;23.59;97.20
76378;BME280;65200;49.500;8.654;2023-07-29T09:35:30;99874.22;;;23.76;94.18
76378;BME280;65200;49.500;8.654;2023-07-29T09:37:58;99871.41;;;23.14;94.19
76378;BME280;65200;49.500;8.654;2023-07-29T09:40:25;99865.31;;;23.32;95.64
76378;BME280;65200;49.500;8.654;2023-07-29T09:42:54;99864.03;;;23.14;94.01
76378;BME280;65200;49.500;8.654;2023-07-29T09:45:21;99856.06;;;23.18;92.91
76378;BME280;65200;49.500;8.654;2023-07-29T09:47:48;99857.16;;;23.17;92.27
76378;BME280;65200;49.500;8.654;2023-07-29T09:50:15;99856.22;;;23.36;91.63
76378;BME280;65200;49.500;8.654;2023-07-29T09:52:42;99852.97;;;23.68;89.81
76378;BME280;65200;49.500;8.654;2023-07-29T09:55:10;99851.84;;;23.97;87.86
76378;BME280;65200;49.500;8.654;2023-07-29T09:57:37;99860.16;;;23.87;86.34
76378;BME280;65200;49.500;8.654;2023-07-29T10:00:06;99857.78;;;24.52;84.10
76378;BME280;65200;49.500;8.654;2023-07-29T10:02:37;99857.13;;;24.83;84.81
76378;BME280;65200;49.500;8.654;2023-07-29T10:05:05;99851.84;;;25.05;79.24
76378;BME280;65200;49.500;8.654;2023-07-29T10:07:33;99847.16;;;25.43;75.13
76378;BME280;65200;49.500;8.654;2023-07-29T10:10:00;99839.63;;;25.35;77.52
76378;BME280;65200;49.500;8.654;2023-07-29T10:12:28;99839.94;;;24.78;81.04
76378;BME280;65200;49.500;8.654;2023-07-29T10:14:59;99849.88;;;24.26;79.90
76378;BME280;65200;49.500;8.654;2023-07-29T10:17:27;99851.88;;;23.92;83.77
76378;BME280;65200;49.500;8.654;2023-07-29T10:19:55;99863.75;;;23.54;82.44
76378;BME280;65200;49.500;8.654;2023-07-29T10:22:24;99859.03;;;23.60;83.64
76378;BME280;65200;49.500;8.654;2023-07-29T10:24:54;99859.09;;;23.55;84.34
76378;BME280;65200;49.500;8.654;2023-07-29T10:27:24;99851.19;;;23.53;82.34
76378;BME280;65200;49.500;8.654;2023-07-29T10:29:52;99839.81;;;23.93;81.50
76378;BME280;65200;49.500;8.654;2023-07-29T10:32:22;99842.06;;;24.38;81.81
76378;BME280;65200;49.500;8.654;2023-07-29T10:34:52;99845.94;;;24.80;80.22
76378;BME280;65200;49.500;8.654;2023-07-29T10:37:19;99844.38;;;24.50;77.69
76378;BME280;65200;49.500;8.654;2023-07-29T10:39:51;99842.28;;;23.95;77.86
76378;BME280;65200;49.500;8.654;2023-07-29T10:42:18;99836.78;;;23.95;78.80
76378;BME280;65200;49.500;8.654;2023-07-29T10:44:49;99836.66;;;25.13;73.64
76378;BME280;65200;49.500;8.654;2023-07-29T10:47:17;99836.09;;;25.29;71.33
76378;BME280;65200;49.500;8.654;2023-07-29T10:49:45;99825.13;;;25.48;70.39
76378;BME280;65200;49.500;8.654;2023-07-29T10:52:14;99823.00;;;25.58;69.46
76378;BME280;65200;49.500;8.654;2023-07-29T10:54:42;99817.75;;;25.62;69.24
76378;BME280;65200;49.500;8.654;2023-07-29T10:57:12;99823.56;;;25.42;67.21
76378;BME280;65200;49.500;8.654;2023-07-29T10:59:39;99823.94;;;25.54;65.96
76378;BME280;65200;49.500;8.654;2023-07-29T11:02:12;99805.81;;;26.39;63.20
76378;BME280;65200;49.500;8.654;2023-07-29T11:04:49;99804.75;;;25.81;62.34
76378;BME280;65200;49.500;8.654;2023-07-29T11:07:23;99816.03;;;25.66;65.02
76378;BME280;65200;49.500;8.654;2023-07-29T11:09:57;99812.09;;;25.86;63.88
76378;BME280;65200;49.500;8.654;2023-07-29T11:12:37;99801.56;;;26.82;59.85
76378;BME280;65200;49.500;8.654;2023-07-29T11:15:12;99818.56;;;25.76;60.86
76378;BME280;65200;49.500;8.654;2023-07-29T11:17:40;99797.88;;;26.24;61.58
76378;BME280;65200;49.500;8.654;2023-07-29T11:20:07;99800.75;;;25.28;61.97
76378;BME280;65200;49.500;8.654;2023-07-29T11:22:36;99811.16;;;24.94;65.12
76378;BME280;65200;49.500;8.654;2023-07-29T11:25:04;99805.81;;;24.65;66.07
76378;BME280;65200;49.500;8.654;2023-07-29T11:27:31;99799.47;;;24.70;68.94
76378;BME280;65200;49.500;8.654;2023-07-29T11:29:58;99804.44;;;24.68;65.78
76378;BME280;65200;49.500;8.654;2023-07-29T11:32:25;99806.78;;;25.11;64.48
76378;BME280;65200;49.500;8.654;2023-07-29T11:34:52;99808.09;;;25.64;63.76
76378;BME280;65200;49.500;8.654;2023-07-29T11:37:18;99802.94;;;25.12;65.51
76378;BME280;65200;49.500;8.654;2023-07-29T11:39:47;99796.91;;;25.75;63.95
76378;BME280;65200;49.500;8.654;2023-07-29T11:42:14;99806.53;;;26.04;62.33
76378;BME280;65200;49.500;8.654;2023-07-29T11:44:42;99798.81;;;26.20;58.80
76378;BME280;65200;49.500;8.654;2023-07-29T11:47:09;99799.25;;;26.62;60.59
76378;BME280;65200;49.500;8.654;2023-07-29T11:49:37;99784.94;;;26.38;60.95
76378;BME280;65200;49.500;8.654;2023-07-29T11:52:06;99793.63;;;26.18;58.61
76378;BME280;65200;49.500;8.654;2023-07-29T11:54:34;99793.38;;;26.28;58.44
76378;BME280;65200;49.500;8.654;2023-07-29T11:57:05;99807.78;;;26.12;53.95
76378;BME280;65200;49.500;8.654;2023-07-29T11:59:33;99803.94;;;25.94;56.12
76378;BME280;65200;49.500;8.654;2023-07-29T12:02:00;99801.34;;;26.03;56.83
76378;BME280;65200;49.500;8.654;2023-07-29T12:04:27;99805.19;;;26.42;53.48
76378;BME280;65200;49.500;8.654;2023-07-29T12:06:54;99795.72;;;26.98;52.12
76378;BME280;65200;49.500;8.654;2023-07-29T12:09:21;99798.19;;;27.74;52.14
76378;BME280;65200;49.500;8.654;2023-07-29T12:11:48;99790.88;;;27.03;56.22
76378;BME280;65200;49.500;8.654;2023-07-29T12:14:17;99806.34;;;26.28;54.45
76378;BME280;65200;49.500;8.654;2023-07-29T12:16:44;99796.59;;;25.76;55.53
76378;BME280;65200;49.500;8.654;2023-07-29T12:19:12;99784.50;;;25.31;56.37
76378;BME280;65200;49.500;8.654;2023-07-29T12:21:38;99801.28;;;25.89;56.16
76378;BME280;65200;49.500;8.654;2023-07-29T12:24:05;99792.75;;;25.77;57.90
76378;BME280;65200;49.500;8.654;2023-07-29T12:26:31;99800.28;;;25.85;56.83
76378;BME280;65200;49.500;8.654;2023-07-29T12:28:59;99797.53;;;25.85;54.89
76378;BME280;65200;49.500;8.654;2023-07-29T12:31:32;99787.00;;;26.82;54.26
76378;BME280;65200;49.500;8.654;2023-07-29T12:33:58;99795.13;;;26.87;53.49
76378;BME280;65200;49.500;8.654;2023-07-29T12:36:27;99793.75;;;27.34;48.61
76378;BME280;65200;49.500;8.654;2023-07-29T12:39:15;99805.78;;;27.99;49.73
76378;BME280;65200;49.500;8.654;2023-07-29T12:41:42;99800.81;;;26.90;51.37
76378;BME280;65200;49.500;8.654;2023-07-29T12:44:08;99797.44;;;26.71;52.33
76378;BME280;65200;49.500;8.654;2023-07-29T12:46:36;99796.22;;;27.22;47.91
76378;BME280;65200;49.500;8.654;2023-07-29T12:49:03;99801.47;;;27.10;49.81
76378;BME280;65200;49.500;8.654;2023-07-29T12:51:29;99793.59;;;27.91;46.30
76378;BME280;65200;49.500;8.654;2023-07-29T12:53:56;99801.63;;;28.10;43.71